Time;durP1;ratioP1;P1;durP2;ratioP2;P2;SDS_P1;SDS_P2;PMS_P1;PMS_P2;Temp;Humidity;BMP_temperature;BMP_pressure;BME280_temperature;BME280_humidity;BME280_pressure;Samples;Min_cycle;Max_cycle;Signal;HPM_P1;HPM_P2
2023/05/26 00:00:01;;;;;;;10.00;3.65;;;16.90;91.80;;;;;;5079886;28;20028;-90
2023/05/26 00:02:27;;;;;;;11.25;3.53;;;17.00;91.90;;;;;;5079116;28;20041;-90
2023/05/26 00:04:58;;;;;;;5.63;3.47;;;16.90;92.00;;;;;;5079049;28;20036;-90
2023/05/26 00:07:24;;;;;;;5.57;3.05;;;16.90;92.00;;;;;;5078199;28;20038;-90
2023/05/26 00:09:49;;;;;;;6.55;3.75;;;16.80;92.10;;;;;;5079691;28;20028;-90
2023/05/26 00:12:15;;;;;;;8.50;3.65;;;16.90;92.30;;;;;;5079262;28;20435;-89
2023/05/26 00:14:41;;;;;;;8.30;3.47;;;16.80;92.30;;;;;;5079922;28;20066;-90
2023/05/26 00:17:06;;;;;;;9.63;3.63;;;16.70;92.50;;;;;;5079688;28;20072;-90
2023/05/26 00:19:35;;;;;;;10.57;3.85;;;16.70;92.60;;;;;;5078386;28;20048;-89
2023/05/26 00:22:01;;;;;;;7.88;3.78;;;16.60;92.90;;;;;;5079261;28;20050;-90
2023/05/26 00:24:27;;;;;;;8.43;3.70;;;16.60;92.90;;;;;;5076254;28;20032;-90
2023/05/26 00:26:53;;;;;;;11.07;3.58;;;16.60;93.30;;;;;;5077860;28;20393;-90
2023/05/26 00:29:19;;;;;;;8.05;3.70;;;16.60;93.10;;;;;;5080516;28;20020;-89
2023/05/26 00:31:45;;;;;;;10.38;4.00;;;16.60;93.20;;;;;;5087236;28;20024;-89
2023/05/26 00:34:11;;;;;;;8.00;3.50;;;16.60;93.40;;;;;;5084701;28;20031;-86
2023/05/26 00:36:37;;;;;;;8.80;3.90;;;16.50;93.70;;;;;;5077528;28;20127;-90
2023/05/26 00:39:02;;;;;;;8.00;3.92;;;16.50;93.80;;;;;;5078947;28;20028;-90
2023/05/26 00:41:28;;;;;;;7.13;4.03;;;16.40;93.80;;;;;;5077393;28;20803;-91
2023/05/26 00:43:54;;;;;;;8.40;4.13;;;16.40;93.90;;;;;;5078355;28;20479;-90
2023/05/26 00:46:19;;;;;;;8.32;3.95;;;16.40;94.00;;;;;;5079577;28;20035;-90
2023/05/26 00:48:45;;;;;;;8.98;3.83;;;16.40;94.10;;;;;;5078466;28;20029;-91
2023/05/26 00:51:14;;;;;;;11.13;4.20;;;16.30;94.30;;;;;;5078460;28;20032;-89
2023/05/26 00:53:43;;;;;;;6.78;3.42;;;16.40;94.70;;;;;;5077624;28;20036;-89
2023/05/26 00:56:10;;;;;;;8.23;3.70;;;16.30;94.60;;;;;;5079321;28;20029;-91
2023/05/26 00:58:36;;;;;;;6.80;3.50;;;16.30;94.70;;;;;;5077780;28;20060;-91
2023/05/26 01:01:02;;;;;;;6.60;3.45;;;16.30;94.80;;;;;;5076535;28;20500;-91
2023/05/26 01:03:29;;;;;;;6.45;3.58;;;16.20;94.80;;;;;;5076530;28;20033;-91
2023/05/26 01:05:55;;;;;;;9.77;3.90;;;16.20;95.00;;;;;;5076008;28;20028;-92
2023/05/26 01:08:20;;;;;;;6.88;3.70;;;16.10;95.20;;;;;;5076202;28;20304;-91
2023/05/26 01:10:46;;;;;;;6.45;3.60;;;16.10;95.30;;;;;;5075755;28;20587;-92
2023/05/26 01:13:18;;;;;;;7.30;3.85;;;16.00;95.40;;;;;;5075469;28;20111;-86
2023/05/26 01:15:51;;;;;;;8.60;3.65;;;16.00;95.60;;;;;;5075523;28;20043;-91
2023/05/26 01:18:36;;;;;;;7.50;4.00;;;15.90;96.10;;;;;;5075481;28;20473;-90
2023/05/26 01:21:10;;;;;;;9.57;3.88;;;15.90;95.90;;;;;;5058082;28;20036;-91
2023/05/26 01:24:21;;;;;;;8.25;3.88;;;15.90;95.90;;;;;;5075273;28;20477;-91
2023/05/26 01:26:56;;;;;;;10.75;3.92;;;15.90;96.00;;;;;;5076221;28;20039;-91
2023/05/26 01:29:24;;;;;;;8.73;4.03;;;15.90;96.00;;;;;;5075988;28;20031;-91
2023/05/26 01:31:50;;;;;;;9.95;3.92;;;15.90;96.00;;;;;;5075283;28;20025;-91
2023/05/26 01:34:16;;;;;;;7.20;4.13;;;15.90;96.30;;;;;;5072504;28;20035;-87
2023/05/26 01:36:42;;;;;;;6.05;3.78;;;15.90;96.30;;;;;;5074222;28;20029;-90
2023/05/26 01:39:10;;;;;;;8.90;4.15;;;15.80;96.70;;;;;;5073597;28;20028;-91
2023/05/26 01:42:09;;;;;;;8.48;4.13;;;15.80;97.00;;;;;;5072932;28;20231;-90
2023/05/26 01:44:50;;;;;;;7.07;4.13;;;15.80;96.70;;;;;;5018534;28;20033;-90
2023/05/26 01:47:16;;;;;;;7.93;3.97;;;15.90;96.60;;;;;;5074187;28;20028;-87
2023/05/26 01:49:46;;;;;;;8.35;4.15;;;15.90;96.60;;;;;;5073323;28;20060;-90
2023/05/26 01:52:15;;;;;;;8.23;4.28;;;15.90;96.50;;;;;;5072960;28;20103;-90
2023/05/26 01:54:50;;;;;;;8.48;4.50;;;15.80;96.50;;;;;;5073497;28;20036;-90
2023/05/26 01:57:16;;;;;;;7.07;4.10;;;15.80;96.70;;;;;;5072564;28;20481;-87
2023/05/26 01:59:42;;;;;;;10.52;4.38;;;15.80;96.80;;;;;;5073171;28;20478;-90
2023/05/26 02:02:07;;;;;;;8.35;4.00;;;15.80;96.80;;;;;;5073257;28;20051;-90
2023/05/26 02:04:33;;;;;;;10.82;4.32;;;15.80;96.80;;;;;;5072490;28;20744;-91
2023/05/26 02:07:02;;;;;;;8.73;4.03;;;15.80;96.80;;;;;;5073191;28;20039;-91
2023/05/26 02:09:29;;;;;;;9.07;4.15;;;15.70;96.80;;;;;;5072884;28;20020;-91
2023/05/26 02:11:54;;;;;;;11.70;4.60;;;15.70;96.80;;;;;;5073165;28;20115;-91
2023/05/26 02:14:20;;;;;;;8.70;3.90;;;15.70;97.00;;;;;;5071874;28;20558;-90
2023/05/26 02:16:46;;;;;;;10.35;4.28;;;15.60;97.10;;;;;;5072574;28;20017;-91
2023/05/26 02:19:12;;;;;;;9.43;3.85;;;15.50;97.20;;;;;;5073123;28;20039;-91
2023/05/26 02:21:38;;;;;;;10.63;4.57;;;15.50;97.30;;;;;;5076716;28;20031;-91
2023/05/26 02:24:04;;;;;;;8.63;4.20;;;15.50;97.20;;;;;;5078378;28;20032;-91
2023/05/26 02:26:30;;;;;;;8.32;3.88;;;15.50;97.30;;;;;;5077841;28;20020;-91
2023/05/26 02:28:56;;;;;;;13.48;4.55;;;15.40;97.40;;;;;;5076686;28;20077;-91
2023/05/26 02:31:22;;;;;;;9.93;4.35;;;15.40;97.50;;;;;;5076542;28;20029;-88
2023/05/26 02:33:49;;;;;;;8.93;4.65;;;15.40;97.50;;;;;;5077199;28;20025;-90
2023/05/26 02:36:14;;;;;;;9.07;4.43;;;15.30;97.60;;;;;;5077249;28;20020;-91
2023/05/26 02:38:40;;;;;;;8.88;4.47;;;15.30;97.60;;;;;;5077852;28;20036;-91
2023/05/26 02:41:06;;;;;;;10.30;4.38;;;15.20;97.80;;;;;;5077723;28;20035;-91
2023/05/26 02:43:32;;;;;;;11.68;4.78;;;15.20;98.00;;;;;;5078901;28;20029;-90
2023/05/26 02:45:58;;;;;;;8.10;4.35;;;15.20;98.00;;;;;;5098608;28;20423;-90
2023/05/26 02:48:23;;;;;;;9.00;4.80;;;15.30;97.80;;;;;;5083458;28;20451;-88
2023/05/26 02:50:49;;;;;;;7.75;4.13;;;15.20;97.90;;;;;;5083669;28;20051;-91
2023/05/26 02:53:15;;;;;;;11.10;4.90;;;15.20;98.10;;;;;;5082353;28;20029;-90
2023/05/26 02:55:41;;;;;;;11.85;4.68;;;15.10;98.10;;;;;;5081058;28;20033;-91
2023/05/26 02:58:07;;;;;;;13.57;5.03;;;15.10;98.30;;;;;;5076636;28;20474;-90
2023/05/26 03:00:33;;;;;;;10.13;4.63;;;15.00;98.20;;;;;;5077328;28;20031;-90
2023/05/26 03:02:58;;;;;;;14.23;5.13;;;15.00;98.40;;;;;;5093170;28;20055;-91
2023/05/26 03:05:24;;;;;;;7.57;4.50;;;15.10;98.40;;;;;;5076701;28;20028;-91
2023/05/26 03:07:49;;;;;;;8.52;4.63;;;15.00;98.40;;;;;;5077542;28;20036;-90
2023/05/26 03:10:15;;;;;;;11.85;4.68;;;14.90;98.80;;;;;;5076210;28;20029;-92
2023/05/26 03:12:40;;;;;;;11.65;4.55;;;14.90;98.80;;;;;;5070318;28;20039;-90
2023/05/26 03:15:07;;;;;;;10.57;4.70;;;14.90;99.10;;;;;;5084000;28;20031;-91
2023/05/26 03:17:32;;;;;;;7.20;4.25;;;14.90;99.20;;;;;;5080616;28;20508;-91
2023/05/26 03:19:58;;;;;;;13.77;4.85;;;14.80;99.30;;;;;;5067006;28;20025;-92
2023/05/26 03:22:23;;;;;;;7.90;4.15;;;14.80;99.50;;;;;;5054919;28;20421;-92
2023/05/26 03:24:49;;;;;;;12.57;5.20;;;14.70;99.50;;;;;;5088022;28;20477;-92
2023/05/26 03:27:17;;;;;;;12.20;4.65;;;14.70;99.50;;;;;;5059290;28;20111;-92
2023/05/26 03:29:42;;;;;;;8.10;4.78;;;14.60;99.90;;;;;;5069155;28;20036;-91
2023/05/26 03:32:08;;;;;;;9.88;4.88;;;14.60;99.90;;;;;;5078794;28;20116;-91
2023/05/26 03:34:38;;;;;;;10.60;5.00;;;14.50;99.90;;;;;;5055187;28;20029;-91
2023/05/26 03:37:07;;;;;;;11.45;4.88;;;14.50;99.90;;;;;;5055477;28;20033;-91
2023/05/26 03:39:33;;;;;;;10.10;5.22;;;14.50;99.90;;;;;;5055011;28;20060;-92
2023/05/26 03:42:00;;;;;;;10.32;4.82;;;14.40;99.90;;;;;;5059115;28;20025;-91
2023/05/26 03:44:26;;;;;;;12.27;5.15;;;14.40;99.90;;;;;;5074883;28;20089;-93
2023/05/26 03:46:51;;;;;;;8.77;4.90;;;14.30;99.90;;;;;;5077482;28;20031;-92
2023/05/26 03:49:17;;;;;;;9.98;4.80;;;14.30;99.90;;;;;;5055891;28;20115;-92
2023/05/26 03:51:42;;;;;;;10.18;5.03;;;14.30;99.90;;;;;;5055690;28;20032;-92
2023/05/26 03:54:08;;;;;;;11.68;5.20;;;14.30;99.90;;;;;;5055400;28;20108;-92
2023/05/26 03:56:34;;;;;;;13.88;5.45;;;14.20;99.90;;;;;;5055611;28;20041;-90
2023/05/26 03:58:59;;;;;;;9.95;5.20;;;14.10;99.90;;;;;;5072619;28;20028;-90
2023/05/26 04:01:25;;;;;;;9.40;5.20;;;14.10;99.90;;;;;;5074975;28;20053;-91
2023/05/26 04:03:51;;;;;;;10.73;5.05;;;14.10;99.90;;;;;;5075459;28;20032;-91
2023/05/26 04:06:17;;;;;;;12.20;4.95;;;14.10;99.90;;;;;;5075748;28;20025;-91
2023/05/26 04:08:43;;;;;;;10.90;5.40;;;14.10;99.90;;;;;;5071834;28;20033;-90
2023/05/26 04:11:09;;;;;;;8.63;4.97;;;14.00;99.90;;;;;;5074739;28;20462;-91
2023/05/26 04:13:40;;;;;;;10.02;5.20;;;14.00;99.90;;;;;;5070040;28;20028;-91
2023/05/26 04:16:06;;;;;;;13.00;5.03;;;14.00;99.90;;;;;;5075934;28;20094;-90
2023/05/26 04:18:32;;;;;;;9.93;5.43;;;14.00;99.90;;;;;;5060906;28;20489;-91
2023/05/26 04:20:57;;;;;;;14.00;5.65;;;14.00;99.90;;;;;;5087969;28;20470;-90
2023/05/26 04:23:23;;;;;;;12.38;5.15;;;14.00;99.90;;;;;;5066553;28;20033;-86
2023/05/26 04:25:50;;;;;;;12.05;5.47;;;14.00;99.90;;;;;;5091990;28;20051;-89
2023/05/26 04:28:15;;;;;;;11.57;5.45;;;14.00;99.90;;;;;;5065774;28;20025;-90
2023/05/26 04:30:42;;;;;;;10.27;5.30;;;13.90;99.90;;;;;;5055940;28;20163;-89
2023/05/26 04:33:09;;;;;;;13.20;5.18;;;13.90;99.90;;;;;;5072317;28;20028;-90
2023/05/26 04:35:35;;;;;;;8.77;4.90;;;13.90;99.90;;;;;;5069379;28;20048;-90
2023/05/26 04:38:04;;;;;;;9.43;5.20;;;13.90;99.90;;;;;;5057312;28;20053;-90
2023/05/26 04:40:32;;;;;;;10.43;5.35;;;13.90;99.90;;;;;;5076195;28;20020;-88
2023/05/26 04:42:59;;;;;;;10.18;5.57;;;13.90;99.90;;;;;;5078411;28;20016;-89
2023/05/26 04:45:24;;;;;;;12.15;5.65;;;13.90;99.90;;;;;;5075936;28;20025;-89
2023/05/26 04:47:50;;;;;;;10.15;5.00;;;13.90;99.90;;;;;;5076680;28;20034;-90
2023/05/26 04:50:16;;;;;;;8.45;5.20;;;13.80;99.90;;;;;;5076550;28;20108;-89
2023/05/26 04:52:42;;;;;;;11.90;5.30;;;13.90;99.90;;;;;;5075717;28;20093;-90
2023/05/26 04:55:08;;;;;;;12.20;5.53;;;13.80;99.90;;;;;;5076983;28;20032;-89
2023/05/26 04:57:34;;;;;;;11.07;5.40;;;13.90;99.90;;;;;;5077346;28;20028;-90
2023/05/26 05:00:00;;;;;;;12.07;5.43;;;13.90;99.90;;;;;;5077713;28;20035;-89
2023/05/26 05:02:26;;;;;;;11.15;5.05;;;13.90;99.90;;;;;;5077013;28;20071;-88
2023/05/26 05:04:52;;;;;;;11.38;5.40;;;13.90;99.90;;;;;;5077020;28;20462;-87
2023/05/26 05:07:18;;;;;;;9.88;5.43;;;14.00;99.90;;;;;;5077352;28;20052;-87
2023/05/26 05:09:44;;;;;;;9.82;5.43;;;13.90;99.90;;;;;;5076929;28;20347;-88
2023/05/26 05:12:10;;;;;;;10.80;5.50;;;14.00;99.90;;;;;;5076873;28;20024;-86
2023/05/26 05:14:35;;;;;;;10.63;5.70;;;13.90;99.90;;;;;;5076591;28;20059;-85
2023/05/26 05:17:02;;;;;;;10.32;5.05;;;13.90;99.90;;;;;;5078480;28;20028;-90
2023/05/26 05:19:28;;;;;;;15.48;6.15;;;13.90;99.90;;;;;;5077119;28;20134;-89
2023/05/26 05:21:54;;;;;;;10.48;4.93;;;13.90;99.90;;;;;;5077881;28;20039;-91
2023/05/26 05:24:20;;;;;;;12.18;5.55;;;13.80;99.90;;;;;;5078098;28;20119;-89
2023/05/26 05:26:45;;;;;;;11.27;5.10;;;13.90;99.90;;;;;;5078209;28;20066;-90
2023/05/26 05:29:11;;;;;;;12.85;5.60;;;13.90;99.90;;;;;;5078902;28;20111;-90
2023/05/26 05:31:36;;;;;;;11.93;5.75;;;13.90;99.90;;;;;;5095151;28;20035;-90
2023/05/26 05:34:02;;;;;;;11.90;5.35;;;14.00;99.90;;;;;;5078335;28;20032;-87
2023/05/26 05:36:28;;;;;;;10.57;5.43;;;14.00;99.90;;;;;;5077520;28;20096;-86
2023/05/26 05:38:54;;;;;;;11.18;5.22;;;14.00;99.90;;;;;;5078048;28;20032;-88
2023/05/26 05:41:20;;;;;;;11.02;5.95;;;14.00;99.90;;;;;;5079208;28;20453;-88
2023/05/26 05:43:45;;;;;;;14.20;5.78;;;14.00;99.90;;;;;;5077340;28;20021;-87
2023/05/26 05:46:11;;;;;;;9.98;5.85;;;14.00;99.90;;;;;;5076794;28;20092;-88
2023/05/26 05:48:39;;;;;;;9.52;6.18;;;14.10;99.90;;;;;;5093677;28;20028;-89
2023/05/26 05:51:05;;;;;;;11.77;5.75;;;14.10;99.90;;;;;;5076290;28;20078;-89
2023/05/26 05:53:30;;;;;;;12.55;5.78;;;14.10;99.90;;;;;;5074933;28;20028;-89
2023/05/26 05:55:56;;;;;;;11.73;5.40;;;14.20;99.90;;;;;;5075525;28;20074;-90
2023/05/26 05:58:21;;;;;;;13.20;6.35;;;14.20;99.90;;;;;;5076083;28;20028;-90
2023/05/26 06:00:47;;;;;;;11.98;5.65;;;14.20;99.90;;;;;;5075610;28;20025;-90
2023/05/26 06:03:13;;;;;;;12.73;6.03;;;14.30;99.90;;;;;;5075655;28;20482;-90
2023/05/26 06:05:40;;;;;;;10.30;5.32;;;14.40;99.90;;;;;;5091603;28;20125;-91
2023/05/26 06:08:05;;;;;;;16.88;5.68;;;14.40;99.90;;;;;;5075174;28;20056;-88
2023/05/26 06:10:32;;;;;;;13.05;5.25;;;14.40;99.90;;;;;;5075683;28;20565;-88
2023/05/26 06:12:57;;;;;;;14.02;5.50;;;14.60;99.90;;;;;;5076007;28;20056;-88
2023/05/26 06:15:23;;;;;;;11.18;5.65;;;14.60;99.90;;;;;;5076267;28;20028;-88
2023/05/26 06:17:49;;;;;;;11.77;5.57;;;14.60;99.90;;;;;;5074799;28;20035;-88
2023/05/26 06:20:15;;;;;;;11.68;5.80;;;14.60;99.90;;;;;;5094714;28;20033;-89
2023/05/26 06:22:41;;;;;;;13.35;5.80;;;14.60;99.90;;;;;;5094494;28;20082;-88
2023/05/26 06:25:07;;;;;;;10.88;5.50;;;14.60;99.90;;;;;;5094233;28;20025;-89
2023/05/26 06:27:32;;;;;;;9.38;5.13;;;14.60;99.90;;;;;;5077133;28;20028;-89
2023/05/26 06:29:58;;;;;;;8.50;4.97;;;14.70;99.90;;;;;;5076190;28;20025;-89
2023/05/26 06:32:24;;;;;;;11.20;5.50;;;14.80;99.90;;;;;;5077204;28;20060;-89
2023/05/26 06:34:49;;;;;;;12.25;5.72;;;14.80;99.90;;;;;;5077400;28;20070;-89
2023/05/26 06:37:15;;;;;;;13.20;5.45;;;14.90;99.90;;;;;;5075483;28;20028;-89
2023/05/26 06:39:40;;;;;;;13.65;4.75;;;14.90;99.90;;;;;;5077292;28;20105;-88
2023/05/26 06:42:06;;;;;;;10.27;5.13;;;15.00;99.90;;;;;;5068423;28;20025;-88
2023/05/26 06:44:33;;;;;;;14.38;5.00;;;15.00;99.90;;;;;;5061905;28;20462;-88
2023/05/26 06:47:00;;;;;;;12.55;4.82;;;15.00;99.90;;;;;;5052857;28;20032;-89
2023/05/26 06:49:25;;;;;;;10.32;5.38;;;15.10;99.90;;;;;;5053985;28;20446;-89
2023/05/26 06:51:51;;;;;;;11.48;4.93;;;15.20;99.90;;;;;;5053288;28;20032;-90
2023/05/26 06:54:16;;;;;;;12.82;5.10;;;15.20;99.90;;;;;;5054146;28;20366;-91
2023/05/26 06:56:42;;;;;;;10.88;5.32;;;15.30;99.90;;;;;;5053217;28;20029;-90
2023/05/26 06:59:08;;;;;;;11.93;5.15;;;15.30;99.90;;;;;;5053573;28;20108;-90
2023/05/26 07:01:33;;;;;;;12.25;5.32;;;15.30;99.90;;;;;;5055222;28;20048;-89
2023/05/26 07:03:59;;;;;;;7.97;4.15;;;15.40;99.90;;;;;;5053326;28;20420;-90
2023/05/26 07:06:24;;;;;;;8.60;4.28;;;15.40;99.90;;;;;;5065357;28;20024;-90
2023/05/26 07:08:50;;;;;;;11.40;4.47;;;15.50;99.90;;;;;;5076185;28;20032;-90
2023/05/26 07:11:15;;;;;;;12.73;4.90;;;15.50;99.90;;;;;;5067385;28;20025;-90
2023/05/26 07:13:41;;;;;;;10.00;4.32;;;15.60;99.90;;;;;;5056209;28;20029;-90
2023/05/26 07:16:07;;;;;;;9.68;4.93;;;15.70;99.90;;;;;;5057395;28;20033;-91
2023/05/26 07:18:33;;;;;;;11.93;4.50;;;15.70;99.90;;;;;;5055354;28;20127;-86
2023/05/26 07:20:58;;;;;;;12.98;4.25;;;15.80;99.90;;;;;;5056414;28;20025;-91
2023/05/26 07:23:24;;;;;;;10.77;5.47;;;15.80;99.90;;;;;;5057426;28;20025;-88
2023/05/26 07:25:49;;;;;;;11.85;4.32;;;15.90;99.90;;;;;;5056031;28;20064;-91
2023/05/26 07:28:15;;;;;;;13.32;4.93;;;16.00;99.90;;;;;;5056095;28;20025;-90
2023/05/26 07:30:40;;;;;;;9.57;4.30;;;16.00;99.90;;;;;;5060763;28;20058;-88
2023/05/26 07:33:06;;;;;;;8.63;4.03;;;16.00;99.90;;;;;;5075981;28;20135;-88
2023/05/26 07:35:32;;;;;;;12.75;5.20;;;16.00;99.90;;;;;;5075491;28;20020;-84
2023/05/26 07:37:58;;;;;;;10.52;4.68;;;16.10;99.90;;;;;;5075575;28;20543;-88
2023/05/26 07:40:24;;;;;;;10.93;5.03;;;16.10;99.90;;;;;;5075592;28;20082;-90
2023/05/26 07:42:50;;;;;;;10.98;4.65;;;16.20;99.90;;;;;;5075419;28;20028;-90
2023/05/26 07:45:15;;;;;;;11.10;4.38;;;16.20;99.90;;;;;;5075570;28;20017;-90
2023/05/26 07:47:41;;;;;;;10.65;4.63;;;16.30;99.90;;;;;;5076267;28;20029;-90
2023/05/26 07:50:07;;;;;;;10.00;4.47;;;16.30;99.90;;;;;;5075582;28;20028;-89
2023/05/26 07:52:33;;;;;;;9.25;4.25;;;16.30;99.90;;;;;;5074968;28;20031;-89
2023/05/26 07:54:59;;;;;;;11.73;4.60;;;16.30;99.90;;;;;;5075237;28;20120;-90
2023/05/26 07:57:25;;;;;;;9.23;4.97;;;16.40;99.90;;;;;;5075243;28;20029;-90
2023/05/26 07:59:51;;;;;;;9.68;4.45;;;16.40;99.90;;;;;;5076148;28;20036;-90
2023/05/26 08:02:16;;;;;;;9.15;4.18;;;16.50;99.90;;;;;;5057257;28;20156;-90
2023/05/26 08:04:42;;;;;;;8.77;4.55;;;16.50;99.90;;;;;;5054612;28;20025;-90
2023/05/26 08:07:07;;;;;;;7.95;4.47;;;16.50;99.90;;;;;;5055294;28;20091;-90
2023/05/26 08:09:33;;;;;;;9.75;4.60;;;16.50;99.90;;;;;;5055872;28;20470;-87
2023/05/26 08:11:59;;;;;;;11.40;5.47;;;16.60;99.90;;;;;;5071912;28;20037;-89
2023/05/26 08:14:26;;;;;;;9.63;5.00;;;16.60;99.90;;;;;;5075863;28;20025;-89
2023/05/26 08:16:51;;;;;;;9.02;4.93;;;16.60;99.90;;;;;;5074294;28;20446;-89
2023/05/26 08:19:17;;;;;;;8.93;4.50;;;16.60;99.80;;;;;;5074103;28;20119;-89
2023/05/26 08:21:42;;;;;;;9.52;4.65;;;16.70;99.60;;;;;;5060365;28;20029;-89
2023/05/26 08:24:08;;;;;;;9.90;4.65;;;16.70;99.60;;;;;;5054580;28;20036;-89
2023/05/26 08:26:34;;;;;;;10.77;5.13;;;16.70;99.30;;;;;;5054538;28;20430;-85
2023/05/26 08:28:59;;;;;;;7.72;4.35;;;16.80;99.40;;;;;;5054100;28;20025;-88
2023/05/26 08:31:25;;;;;;;11.55;5.20;;;16.80;99.60;;;;;;5065779;28;20426;-90
2023/05/26 08:33:51;;;;;;;11.98;4.97;;;16.90;99.40;;;;;;5073842;28;20028;-91
2023/05/26 08:36:16;;;;;;;10.77;4.72;;;16.90;99.70;;;;;;5075569;28;20024;-91
2023/05/26 08:38:42;;;;;;;10.43;4.50;;;16.90;99.10;;;;;;5074216;28;20111;-88
2023/05/26 08:41:10;;;;;;;11.65;4.72;;;17.00;99.10;;;;;;5074484;28;20028;-91
2023/05/26 08:43:49;;;;;;;14.13;5.25;;;17.00;99.00;;;;;;5074538;28;20025;-87
2023/05/26 08:46:15;;;;;;;9.95;5.25;;;17.10;98.90;;;;;;5074518;28;20056;-90
2023/05/26 08:48:41;;;;;;;11.27;5.10;;;17.10;99.10;;;;;;5074091;28;20037;-90
2023/05/26 08:51:11;;;;;;;12.02;5.72;;;17.10;99.00;;;;;;5065352;28;20426;-90
2023/05/26 08:53:37;;;;;;;13.80;5.18;;;17.10;98.90;;;;;;5055107;28;20028;-87
2023/05/26 08:56:03;;;;;;;11.63;5.25;;;17.20;99.10;;;;;;5063162;28;20070;-90
2023/05/26 08:58:31;;;;;;;11.13;4.95;;;17.20;99.20;;;;;;5069105;28;20032;-89
2023/05/26 09:00:57;;;;;;;12.77;5.30;;;17.30;99.10;;;;;;5067082;28;20027;-90
2023/05/26 09:03:23;;;;;;;10.80;5.30;;;17.30;99.10;;;;;;5058160;28;20029;-90
2023/05/26 09:05:48;;;;;;;13.40;5.53;;;17.40;99.00;;;;;;5061992;28;20039;-89
2023/05/26 09:08:15;;;;;;;11.55;4.97;;;17.40;99.10;;;;;;5062567;28;20040;-89
2023/05/26 09:10:40;;;;;;;12.77;5.32;;;17.50;99.20;;;;;;5066415;28;20464;-90
2023/05/26 09:13:07;;;;;;;12.95;6.28;;;17.50;99.20;;;;;;5069234;28;20029;-90
2023/05/26 09:15:34;;;;;;;13.55;5.60;;;17.50;98.90;;;;;;5061498;28;20478;-88
2023/05/26 09:18:05;;;;;;;10.95;5.53;;;17.60;98.80;;;;;;5062308;28;20078;-89
2023/05/26 09:20:31;;;;;;;9.20;5.00;;;17.60;98.90;;;;;;5064010;28;20166;-90
2023/05/26 09:22:58;;;;;;;11.88;5.47;;;17.60;99.00;;;;;;5059397;28;20025;-90
2023/05/26 09:25:33;;;;;;;12.02;5.28;;;17.60;99.10;;;;;;5060198;28;20036;-90
2023/05/26 09:28:07;;;;;;;15.57;6.20;;;17.70;98.80;;;;;;5061758;28;20028;-92
2023/05/26 09:30:43;;;;;;;10.82;5.60;;;17.80;98.70;;;;;;5064833;28;20031;-91
2023/05/26 09:33:26;;;;;;;10.65;4.93;;;17.80;98.50;;;;;;5059968;28;20024;-91
2023/05/26 09:35:52;;;;;;;16.90;5.53;;;17.80;98.40;;;;;;5077525;28;20067;-91
2023/05/26 09:38:19;;;;;;;11.93;5.25;;;17.90;98.40;;;;;;5063971;28;20056;-91
2023/05/26 09:40:48;;;;;;;11.27;5.72;;;17.90;98.40;;;;;;5064949;28;20032;-90
2023/05/26 09:43:17;;;;;;;12.93;5.80;;;18.00;98.40;;;;;;5069354;28;20466;-92
2023/05/26 09:45:42;;;;;;;11.23;5.32;;;18.00;98.10;;;;;;5068021;28;20035;-89
2023/05/26 09:48:09;;;;;;;13.85;5.93;;;18.10;98.00;;;;;;5073237;28;20032;-89
2023/05/26 09:50:37;;;;;;;10.32;6.00;;;18.10;97.80;;;;;;5073469;28;20028;-90
2023/05/26 09:53:05;;;;;;;10.88;5.60;;;18.10;97.90;;;;;;5073868;28;20064;-89
2023/05/26 09:55:35;;;;;;;16.40;6.07;;;18.10;97.70;;;;;;5074243;28;20028;-89
2023/05/26 09:58:06;;;;;;;16.48;6.10;;;18.10;97.70;;;;;;5072420;28;20024;-87
2023/05/26 10:00:34;;;;;;;10.05;5.22;;;18.20;97.50;;;;;;5074018;28;20039;-86
2023/05/26 10:03:03;;;;;;;8.85;5.50;;;18.30;97.30;;;;;;5073990;28;20040;-86
2023/05/26 10:05:33;;;;;;;10.98;5.15;;;18.30;97.40;;;;;;5074500;28;20021;-86
2023/05/26 10:08:00;;;;;;;12.07;5.38;;;18.40;97.50;;;;;;5074464;28;20588;-87
2023/05/26 10:10:28;;;;;;;11.25;5.57;;;18.40;97.30;;;;;;5072983;28;20025;-87
2023/05/26 10:12:54;;;;;;;12.13;5.40;;;18.40;96.90;;;;;;5072713;28;20032;-87
2023/05/26 10:15:20;;;;;;;9.48;5.50;;;18.40;97.00;;;;;;5073928;28;20105;-86
2023/05/26 10:17:46;;;;;;;11.05;5.00;;;18.50;97.00;;;;;;5072888;28;20028;-87
2023/05/26 10:20:13;;;;;;;12.18;5.00;;;18.50;96.60;;;;;;5074133;28;20155;-86
2023/05/26 10:22:58;;;;;;;12.38;5.10;;;18.60;96.70;;;;;;5072995;28;20031;-86
2023/05/26 10:25:30;;;;;;;10.02;5.30;;;18.60;96.90;;;;;;5077133;28;20033;-85
2023/05/26 10:28:19;;;;;;;10.02;5.40;;;18.70;96.60;;;;;;5097276;28;20032;-86
2023/05/26 10:30:45;;;;;;;8.13;4.43;;;18.70;96.30;;;;;;5069520;28;20025;-85
2023/05/26 10:33:12;;;;;;;9.45;5.07;;;18.70;96.80;;;;;;5053259;28;20040;-83
2023/05/26 10:35:51;;;;;;;13.70;5.32;;;18.80;96.50;;;;;;5061074;28;20021;-84
2023/05/26 10:38:17;;;;;;;12.40;5.30;;;18.80;96.00;;;;;;5063538;28;20031;-84
2023/05/26 10:40:44;;;;;;;10.48;4.97;;;18.90;96.40;;;;;;5064842;28;20029;-90
2023/05/26 10:43:26;;;;;;;9.48;4.88;;;19.00;96.60;;;;;;5068067;28;20472;-89
2023/05/26 10:46:03;;;;;;;9.35;4.80;;;19.00;95.70;;;;;;5066220;28;20041;-91
2023/05/26 10:48:58;;;;;;;9.25;4.80;;;19.10;96.00;;;;;;5068904;28;20482;-87
2023/05/26 10:51:24;;;;;;;8.05;4.93;;;19.20;95.40;;;;;;5068173;28;20032;-88
2023/05/26 10:53:52;;;;;;;12.13;5.20;;;19.20;95.20;;;;;;5068394;28;20058;-85
2023/05/26 10:56:25;;;;;;;11.55;4.82;;;19.30;95.80;;;;;;5066811;28;20119;-84
2023/05/26 10:58:56;;;;;;;9.63;5.15;;;19.40;95.50;;;;;;5066990;28;20025;-84
2023/05/26 11:01:25;;;;;;;11.95;4.75;;;19.40;95.00;;;;;;5066157;28;20049;-87
2023/05/26 11:04:10;;;;;;;11.63;4.40;;;19.50;95.10;;;;;;5097402;28;20059;-84
2023/05/26 11:06:51;;;;;;;11.10;5.00;;;19.50;95.00;;;;;;5069897;28;20025;-84
2023/05/26 11:09:21;;;;;;;8.10;4.40;;;19.60;94.90;;;;;;5066718;28;20462;-85
2023/05/26 11:11:50;;;;;;;9.80;5.20;;;19.60;95.50;;;;;;5069265;28;20028;-82
2023/05/26 11:14:25;;;;;;;10.60;4.55;;;19.70;95.70;;;;;;5065475;28;20025;-84
2023/05/26 11:16:54;;;;;;;7.78;3.90;;;19.80;95.40;;;;;;5070177;28;20111;-83
2023/05/26 11:19:27;;;;;;;9.23;4.82;;;19.90;95.90;;;;;;5062449;28;20104;-82
2023/05/26 11:21:53;;;;;;;8.98;5.22;;;19.90;94.70;;;;;;5067927;28;20104;-87
2023/05/26 11:24:19;;;;;;;12.70;4.97;;;20.00;94.20;;;;;;5083179;28;20057;-88
2023/05/26 11:26:44;;;;;;;7.93;4.60;;;20.00;94.70;;;;;;5063883;28;20040;-83
2023/05/26 11:29:10;;;;;;;11.25;5.05;;;20.10;94.40;;;;;;5066029;28;20466;-85
2023/05/26 11:31:36;;;;;;;10.70;4.68;;;20.10;93.70;;;;;;5067937;28;20025;-80
2023/05/26 11:34:02;;;;;;;11.90;5.03;;;20.10;93.90;;;;;;5064355;28;20029;-80
2023/05/26 11:36:28;;;;;;;15.57;4.70;;;20.20;94.20;;;;;;5065219;28;20027;-80
2023/05/26 11:38:58;;;;;;;7.72;4.55;;;20.20;93.70;;;;;;5070829;28;20036;-80
2023/05/26 11:41:25;;;;;;;11.20;4.63;;;20.30;93.40;;;;;;5067230;28;20530;-85
2023/05/26 11:43:53;;;;;;;10.57;4.28;;;20.40;93.30;;;;;;5064998;28;20025;-82
2023/05/26 11:46:20;;;;;;;10.85;4.47;;;20.40;93.50;;;;;;5071150;28;20027;-80
2023/05/26 11:48:46;;;;;;;6.97;4.07;;;20.40;93.40;;;;;;5059235;28;20024;-82
2023/05/26 11:51:13;;;;;;;9.70;4.35;;;20.40;93.20;;;;;;5070583;28;20059;-81
2023/05/26 11:53:40;;;;;;;7.28;4.30;;;20.50;93.00;;;;;;5062443;28;20484;-83
2023/05/26 11:56:11;;;;;;;8.60;4.40;;;20.60;93.90;;;;;;5074657;28;20029;-81
2023/05/26 11:58:55;;;;;;;10.02;4.30;;;20.80;92.80;;;;;;5058221;28;20029;-83
2023/05/26 12:01:21;;;;;;;6.32;4.18;;;20.80;92.60;;;;;;5074588;28;20088;-86
2023/05/26 12:03:51;;;;;;;8.13;4.80;;;20.90;92.10;;;;;;5063867;28;20033;-85
2023/05/26 12:06:25;;;;;;;10.68;4.60;;;21.00;91.90;;;;;;5070243;28;20024;-85
2023/05/26 12:08:57;;;;;;;10.25;4.55;;;21.10;92.60;;;;;;5057673;28;20026;-85
2023/05/26 12:11:33;;;;;;;7.95;3.78;;;21.20;92.10;;;;;;5067574;28;20025;-84
2023/05/26 12:14:12;;;;;;;9.27;4.57;;;21.40;92.30;;;;;;5065901;28;20037;-84
2023/05/26 12:16:41;;;;;;;9.35;4.03;;;21.50;91.50;;;;;;5074338;28;20059;-83
2023/05/26 12:19:11;;;;;;;9.15;4.47;;;21.60;91.20;;;;;;5070875;28;20028;-85
2023/05/26 12:21:51;;;;;;;8.82;3.97;;;21.70;91.70;;;;;;5074031;28;20024;-85
2023/05/26 12:24:37;;;;;;;7.80;4.18;;;21.80;90.20;;;;;;5091228;28;20032;-84
2023/05/26 12:27:09;;;;;;;10.10;3.92;;;21.80;90.00;;;;;;5058454;28;20528;-85
2023/05/26 12:29:37;;;;;;;7.45;4.07;;;21.90;90.10;;;;;;5066589;28;20112;-85
2023/05/26 12:32:05;;;;;;;7.85;4.05;;;22.00;90.20;;;;;;5073636;28;20036;-85
2023/05/26 12:34:31;;;;;;;7.10;3.88;;;22.20;90.10;;;;;;5058984;28;20021;-84
2023/05/26 12:36:56;;;;;;;9.10;4.07;;;22.30;88.80;;;;;;5071778;28;20112;-83
2023/05/26 12:39:22;;;;;;;8.15;3.78;;;22.40;89.50;;;;;;5065629;28;20469;-85
2023/05/26 12:41:47;;;;;;;5.90;3.50;;;22.50;89.00;;;;;;5066242;28;20025;-85